Time;durP1;ratioP1;P1;durP2;ratioP2;P2;SDS_P1;SDS_P2;PMS_P1;PMS_P2;Temp;Humidity;BMP_temperature;BMP_pressure;BME280_temperature;BME280_humidity;BME280_pressure;Samples;Min_cycle;Max_cycle;Signal;HPM_P1;HPM_P2
2022/12/24 00:00:24;;;;;;;7.28;2.55;;;;;;;6.33;100.00;99349.00;5039823;28;20032;-40
2022/12/24 00:02:50;;;;;;;4.93;1.52;;;;;;;6.32;100.00;99363.13;5045793;28;20051;-41
2022/12/24 00:05:17;;;;;;;6.65;1.58;;;;;;;6.28;100.00;99365.75;5049604;28;20037;-40
2022/12/24 00:07:44;;;;;;;4.03;1.40;;;;;;;6.26;100.00;99359.00;5051447;28;20049;-40
2022/12/24 00:10:11;;;;;;;7.43;1.65;;;;;;;6.24;100.00;99353.88;5034942;28;20495;-40
2022/12/24 00:12:37;;;;;;;8.23;1.50;;;;;;;6.27;100.00;99360.63;5051577;28;20053;-40
2022/12/24 00:15:06;;;;;;;6.93;2.38;;;;;;;6.26;100.00;99365.31;5053200;28;20041;-40
2022/12/24 00:17:33;;;;;;;2.85;1.27;;;;;;;6.27;100.00;99360.63;5051618;28;20048;-40
2022/12/24 00:20:00;;;;;;;6.13;1.80;;;;;;;6.27;100.00;99358.69;5052675;28;20045;-40
2022/12/24 00:22:26;;;;;;;7.07;1.42;;;;;;;6.27;100.00;99361.44;5053253;28;20491;-41
2022/12/24 00:24:53;;;;;;;6.28;1.58;;;;;;;6.28;100.00;99378.69;5038293;28;20049;-40
2022/12/24 00:31:09;;;;;;;7.32;2.00;;;;;;;6.25;100.00;99374.69;5053212;28;20059;-40
2022/12/24 00:33:54;;;;;;;5.93;1.63;;;;;;;6.24;100.00;99372.31;5055228;28;20545;-40
2022/12/24 00:43:55;;;;;;;6.47;1.35;;;;;;;6.25;100.00;99373.91;5051532;28;20037;-41
2022/12/24 00:46:24;;;;;;;6.88;2.50;;;;;;;6.26;100.00;99370.81;5051788;28;20063;-40
2022/12/24 00:48:51;;;;;;;6.80;3.35;;;;;;;6.26;100.00;99381.81;5052896;28;20037;-40
2022/12/24 00:51:19;;;;;;;5.43;1.70;;;;;;;6.27;100.00;99377.91;5054137;28;20045;-41
2022/12/24 00:53:46;;;;;;;7.55;1.63;;;;;;;6.29;100.00;99385.81;5044041;28;20073;-40
2022/12/24 01:00:31;;;;;;;6.97;1.83;;;;;;;6.26;100.00;99395.53;5046412;28;20119;-40
2022/12/24 01:02:58;;;;;;;5.55;2.15;;;;;;;6.25;100.00;99393.94;5048768;28;20063;-40
2022/12/24 01:05:25;;;;;;;7.03;1.27;;;;;;;6.24;100.00;99395.09;5055513;28;20052;-40
2022/12/24 01:12:04;;;;;;;6.90;1.17;;;;;;;6.20;100.00;99398.88;5050553;28;20044;-40
2022/12/24 01:14:51;;;;;;;9.57;2.25;;;;;;;6.20;100.00;99396.94;5041694;28;20064;-40
2022/12/24 01:21:38;;;;;;;2.40;1.30;;;;;;;6.17;100.00;99399.59;5045910;28;20045;-40
2022/12/24 01:36:01;;;;;;;5.72;1.88;;;;;;;6.08;100.00;99410.72;5050726;28;20033;-41
2022/12/24 01:45:44;;;;;;;4.65;1.63;;;;;;;6.06;100.00;99404.78;5036834;28;20422;-40
2022/12/24 01:48:32;;;;;;;8.13;1.30;;;;;;;6.04;100.00;99407.84;4971342;28;20042;-41
2022/12/24 01:51:15;;;;;;;5.32;1.33;;;;;;;6.03;100.00;99420.00;5050061;28;20061;-40
2022/12/24 01:53:47;;;;;;;6.57;1.35;;;;;;;6.04;100.00;99415.28;5035224;28;20048;-40
2022/12/24 01:56:14;;;;;;;6.85;1.90;;;;;;;6.05;100.00;99422.41;5047269;28;20091;-41
2022/12/24 01:58:47;;;;;;;11.52;1.73;;;;;;;6.05;100.00;99427.91;5044403;28;20044;-41
2022/12/24 02:01:14;;;;;;;10.45;2.22;;;;;;;6.02;100.00;99431.34;5044278;28;20491;-41
2022/12/24 02:03:41;;;;;;;8.77;1.38;;;;;;;6.00;100.00;99436.38;5045112;28;20045;-40
2022/12/24 02:06:11;;;;;;;5.28;1.75;;;;;;;5.98;100.00;99444.19;5050774;28;20037;-40
2022/12/24 02:08:38;;;;;;;8.15;1.65;;;;;;;5.95;100.00;99434.69;5048508;28;20056;-40
2022/12/24 02:11:23;;;;;;;8.25;3.50;;;;;;;5.93;100.00;99449.91;5040565;28;20045;-40
2022/12/24 02:13:54;;;;;;;5.18;1.77;;;;;;;5.91;100.00;99457.66;5045543;28;20352;-40
2022/12/24 02:20:34;;;;;;;8.48;1.90;;;;;;;5.83;100.00;99445.63;5042593;28;20033;-40
2022/12/24 02:23:26;;;;;;;7.10;1.50;;;;;;;5.82;100.00;99455.03;5049340;28;20083;-40
2022/12/24 02:25:55;;;;;;;9.48;1.80;;;;;;;5.83;100.00;99450.31;5053382;28;20044;-40
2022/12/24 02:29:09;;;;;;;10.75;1.98;;;;;;;5.81;100.00;99452.63;5052489;28;20069;-40
2022/12/24 02:35:53;;;;;;;4.65;1.40;;;;;;;5.81;100.00;99452.63;5049442;28;20037;-40
2022/12/24 02:51:06;;;;;;;7.10;1.65;;;;;;;5.76;100.00;99461.09;5049883;28;20428;-41
2022/12/24 02:53:53;;;;;;;5.03;1.58;;;;;;;5.73;100.00;99470.81;5042571;28;20037;-40
2022/12/24 02:57:07;;;;;;;7.88;1.92;;;;;;;5.71;100.00;99469.56;5051066;28;20048;-41
2022/12/24 04:58:45;;;;;;;24.98;3.90;;;;;;;6.11;100.00;99454.00;4957750;22;20067;-41
2022/12/24 05:01:32;;;;;;;19.30;3.67;;;;;;;6.12;100.00;99452.81;5022714;28;20064;-40
2022/12/24 05:04:00;;;;;;;21.77;3.85;;;;;;;6.16;100.00;99459.25;5016366;28;20487;-40
2022/12/24 05:06:31;;;;;;;25.80;3.60;;;;;;;6.16;100.00;99455.69;5016175;28;20100;-40
2022/12/24 05:08:58;;;;;;;22.30;3.00;;;;;;;6.15;100.00;99463.13;5026054;28;20048;-40
2022/12/24 05:11:25;;;;;;;13.70;4.72;;;;;;;6.12;100.00;99458.31;5033623;28;20041;-40
2022/12/24 05:13:52;;;;;;;15.60;3.80;;;;;;;6.09;100.00;99453.50;5035096;28;20509;-40
2022/12/24 05:16:21;;;;;;;13.98;4.00;;;;;;;6.08;100.00;99463.72;5035230;28;20386;-40
2022/12/24 05:18:48;;;;;;;21.42;3.90;;;;;;;6.09;100.00;99462.56;5030547;28;20045;-40
2022/12/24 05:21:18;;;;;;;17.65;3.20;;;;;;;6.11;100.00;99478.72;5035303;28;20088;-40
2022/12/24 05:26:47;;;;;;;17.65;3.85;;;;;;;6.14;100.00;99486.28;5034558;28;20061;-40
2022/12/24 05:29:14;;;;;;;23.65;5.70;;;;;;;6.14;100.00;99486.28;5030325;28;20045;-42
2022/12/24 05:31:42;;;;;;;17.27;3.08;;;;;;;6.14;100.00;99478.03;5031968;28;20041;-40
2022/12/24 05:34:10;;;;;;;22.65;3.38;;;;;;;6.14;100.00;99483.53;5030927;28;20037;-40
2022/12/24 05:36:37;;;;;;;17.35;4.05;;;;;;;6.14;100.00;99473.31;5028345;28;20065;-40
2022/12/24 05:39:05;;;;;;;18.88;3.10;;;;;;;6.13;100.00;99477.22;5031739;28;20099;-43
2022/12/24 05:45:38;;;;;;;22.75;5.82;;;;;;;6.17;100.00;99485.56;5033073;28;20041;-40
2022/12/24 05:48:06;;;;;;;31.48;6.72;;;;;;;6.15;100.00;99490.59;5020960;28;20041;-40
2022/12/24 05:50:35;;;;;;;21.60;3.92;;;;;;;6.12;100.00;99486.59;5034048;28;20499;-40
2022/12/24 05:53:01;;;;;;;24.73;4.80;;;;;;;6.12;100.00;99483.06;5032899;28;20061;-40
2022/12/24 05:55:28;;;;;;;21.35;4.13;;;;;;;6.11;100.00;99484.22;5033484;28;20050;-40
2022/12/24 05:57:55;;;;;;;13.95;3.55;;;;;;;6.11;100.00;99492.47;5034157;28;20388;-41
2022/12/24 06:00:21;;;;;;;17.90;3.30;;;;;;;6.10;100.00;99493.59;5053823;28;20052;-40
2022/12/24 06:02:49;;;;;;;18.10;3.45;;;;;;;6.11;100.00;99495.22;5057886;28;20049;-40
2022/12/24 06:05:16;;;;;;;20.55;4.07;;;;;;;6.10;100.00;99502.63;5053406;28;20458;-40
2022/12/24 06:07:44;;;;;;;35.70;5.85;;;;;;;6.10;100.00;99507.34;5054258;28;20048;-41
2022/12/24 06:10:11;;;;;;;26.00;5.22;;;;;;;6.08;100.00;99520.63;5044040;28;20049;-43
2022/12/24 06:12:37;;;;;;;16.33;4.10;;;;;;;6.07;100.00;99514.31;5051103;28;20102;-40
2022/12/24 06:15:05;;;;;;;19.63;3.42;;;;;;;6.06;100.00;99512.72;5041235;28;20118;-41
2022/12/24 06:17:32;;;;;;;20.83;3.25;;;;;;;6.09;100.00;99519.47;5053040;28;20048;-40
2022/12/24 06:19:59;;;;;;;27.30;4.00;;;;;;;6.05;100.00;99504.81;5042751;28;20056;-40
2022/12/24 06:22:25;;;;;;;15.50;3.05;;;;;;;6.02;100.00;99508.25;5050644;28;20082;-40
2022/12/24 06:24:52;;;;;;;21.23;4.60;;;;;;;5.99;100.00;99515.25;5052621;28;20055;-40
2022/12/24 06:27:19;;;;;;;10.95;2.72;;;;;;;5.97;100.00;99503.00;5054384;28;20033;-40
2022/12/24 06:29:45;;;;;;;19.73;3.90;;;;;;;5.95;100.00;99499.81;5052452;28;20053;-40
2022/12/24 06:32:12;;;;;;;24.00;3.03;;;;;;;5.95;100.00;99497.06;5054338;28;20045;-40
2022/12/24 06:34:39;;;;;;;14.48;3.38;;;;;;;5.96;100.00;99501.38;5053902;28;20123;-40
2022/12/24 06:37:05;;;;;;;21.17;3.22;;;;;;;5.94;100.00;99498.19;5056302;28;20086;-40
2022/12/24 06:39:32;;;;;;;24.42;4.07;;;;;;;5.91;100.00;99482.38;5059901;28;20060;-40
2022/12/24 06:41:59;;;;;;;30.73;4.55;;;;;;;5.90;100.00;99495.34;5052134;28;20187;-40
2022/12/24 06:44:26;;;;;;;18.92;3.58;;;;;;;5.89;100.00;99493.72;5034209;28;20084;-40
2022/12/24 06:46:53;;;;;;;19.58;3.53;;;;;;;5.89;100.00;99491.00;5033075;28;20041;-40
2022/12/24 06:49:20;;;;;;;16.73;3.47;;;;;;;5.88;100.00;99483.06;5042483;28;20048;-40
2022/12/24 06:51:46;;;;;;;18.23;3.30;;;;;;;5.88;100.00;99485.81;5052080;28;20498;-41
2022/12/24 06:54:13;;;;;;;14.43;2.95;;;;;;;5.87;100.00;99487.00;5053559;28;20399;-40
2022/12/24 06:56:39;;;;;;;16.33;3.25;;;;;;;5.85;100.00;99486.53;5056595;28;20048;-40
2022/12/24 06:59:06;;;;;;;20.40;3.60;;;;;;;5.85;100.00;99492.03;5046330;28;20041;-40
2022/12/24 07:01:33;;;;;;;13.32;2.75;;;;;;;5.85;100.00;99483.78;5048554;28;20135;-40
2022/12/24 07:04:00;;;;;;;22.95;2.92;;;;;;;5.86;100.00;99485.38;5054685;28;20079;-40
2022/12/24 07:06:47;;;;;;;14.57;2.90;;;;;;;5.86;100.00;99491.69;5050989;28;20037;-40
2022/12/24 07:09:34;;;;;;;15.95;3.47;;;;;;;5.85;100.00;99481.03;5051347;28;20052;-40
2022/12/24 07:12:21;;;;;;;19.25;3.67;;;;;;;5.85;100.00;99487.31;5052012;28;20082;-40
2022/12/24 07:15:09;;;;;;;13.93;4.15;;;;;;;5.86;100.00;99493.63;5043481;28;20033;-41
2022/12/24 07:17:56;;;;;;;17.30;3.90;;;;;;;5.83;100.00;99475.03;5048698;28;20507;-40
2022/12/24 07:20:43;;;;;;;17.15;2.97;;;;;;;5.82;100.00;99470.72;5050169;28;20054;-40
2022/12/24 07:23:30;;;;;;;15.35;3.50;;;;;;;5.81;100.00;99474.59;5036972;28;20518;-40
2022/12/24 07:26:17;;;;;;;13.15;2.50;;;;;;;5.81;100.00;99463.59;5051239;28;20387;-40
2022/12/24 07:29:04;;;;;;;21.33;3.20;;;;;;;5.80;100.00;99468.28;5051820;28;20038;-40
2022/12/24 07:31:51;;;;;;;12.77;3.03;;;;;;;5.84;100.00;99466.47;5050967;28;20052;-40
2022/12/24 07:34:38;;;;;;;16.27;3.83;;;;;;;5.86;100.00;99466.94;5045521;28;20041;-45
2022/12/24 07:37:25;;;;;;;14.73;3.33;;;;;;;5.86;100.00;99463.41;5044261;28;20075;-40
2022/12/24 07:40:12;;;;;;;19.25;4.40;;;;;;;5.86;100.00;99460.66;5048303;28;20402;-40
2022/12/24 07:42:59;;;;;;;17.13;3.20;;;;;;;5.84;100.00;99460.19;5048668;28;20052;-40
2022/12/24 07:49:47;;;;;;;18.80;2.90;;;;;;;5.82;100.00;99454.22;5047514;28;20082;-40
2022/12/24 07:52:34;;;;;;;14.88;3.25;;;;;;;5.83;100.00;99458.56;5048593;28;20056;-40
2022/12/24 07:55:21;;;;;;;10.27;2.45;;;;;;;5.84;100.00;99455.50;5051524;28;20076;-40
2022/12/24 07:58:06;;;;;;;15.32;2.72;;;;;;;5.84;100.00;99462.91;5051531;28;20061;-40
2022/12/24 08:00:33;;;;;;;28.30;3.72;;;;;;;5.84;100.00;99474.72;5047456;28;20087;-40
2022/12/24 08:03:00;;;;;;;15.98;3.53;;;;;;;5.84;100.00;99479.41;5037132;28;20045;-40
2022/12/24 08:05:27;;;;;;;19.75;3.47;;;;;;;5.85;100.00;99479.06;5050844;28;20041;-40
2022/12/24 08:07:54;;;;;;;11.80;2.67;;;;;;;5.86;100.00;99477.94;5048492;28;20045;-40
2022/12/24 08:10:20;;;;;;;23.08;4.38;;;;;;;5.89;100.00;99470.97;5050110;28;20052;-40
2022/12/24 08:12:47;;;;;;;21.30;3.03;;;;;;;5.90;100.00;99478.88;5050076;28;20132;-40
2022/12/24 08:15:14;;;;;;;17.40;2.72;;;;;;;5.94;100.00;99476.22;5047256;28;20047;-40
2022/12/24 08:17:41;;;;;;;17.13;3.58;;;;;;;5.96;100.00;99466.47;5052334;28;20103;-40
2022/12/24 08:20:28;;;;;;;15.48;3.08;;;;;;;5.99;100.00;99452.06;5048085;28;20056;-40
2022/12/24 08:23:15;;;;;;;12.85;3.45;;;;;;;6.01;100.00;99459.97;5049493;28;20041;-40
2022/12/24 08:34:00;;;;;;;16.90;2.72;;;;;;;6.04;100.00;99464.75;5050783;28;20037;-40
2022/12/24 08:41:09;;;;;;;17.77;2.20;;;;;;;6.09;100.00;99470.81;5038476;28;20044;-40
2022/12/24 08:43:36;;;;;;;13.23;2.78;;;;;;;6.11;100.00;99484.22;5052501;28;20045;-40
2022/12/24 08:46:05;;;;;;;11.60;2.90;;;;;;;6.12;100.00;99489.34;5056000;28;20080;-40
2022/12/24 08:56:13;;;;;;;9.85;1.30;;;;;;;6.17;100.00;99504.78;5055950;28;20040;-42
2022/12/24 08:58:40;;;;;;;7.13;1.35;;;;;;;6.23;100.00;99497.91;5066299;28;20056;-40
2022/12/24 09:08:38;;;;;;;12.73;2.83;;;;;;;6.51;100.00;99498.75;5053678;28;20041;-40
2022/12/24 09:15:36;;;;;;;5.38;1.27;;;;;;;6.65;100.00;99482.69;5042775;28;20503;-40
2022/12/24 09:26:05;;;;;;;8.50;2.50;;;;;;;6.69;100.00;99472.59;5043195;28;20044;-40
2022/12/24 09:28:32;;;;;;;5.93;1.88;;;;;;;6.75;100.00;99473.91;5047831;28;20051;-40
2022/12/24 09:39:45;;;;;;;7.57;1.92;;;;;;;6.98;100.00;99478.88;5042622;28;20068;-40
2022/12/24 09:50:53;;;;;;;9.20;3.03;;;;;;;7.20;100.00;99454.28;5052391;28;20033;-40
2022/12/24 09:54:11;;;;;;;13.27;2.38;;;;;;;7.24;100.00;99459.91;5037393;28;20056;-41
2022/12/24 09:56:43;;;;;;;12.85;2.03;;;;;;;7.26;100.00;99444.63;5049871;28;20082;-42
2022/12/24 09:59:16;;;;;;;12.48;2.25;;;;;;;7.31;100.00;99452.63;5052689;28;20521;-40
2022/12/24 10:01:43;;;;;;;14.40;2.72;;;;;;;7.35;100.00;99445.28;5053086;28;20036;-40
2022/12/24 10:04:15;;;;;;;9.50;3.35;;;;;;;7.42;100.00;99450.13;5051592;28;20072;-41
2022/12/24 10:06:52;;;;;;;12.30;2.38;;;;;;;7.50;100.00;99446.41;5046720;28;20080;-41
2022/12/24 10:09:34;;;;;;;10.18;3.05;;;;;;;7.55;100.00;99446.13;5053264;28;20071;-40
2022/12/24 10:12:32;;;;;;;11.25;2.08;;;;;;;7.61;100.00;99458.47;5044231;28;20033;-40
2022/12/24 10:19:53;;;;;;;11.07;1.85;;;;;;;7.60;100.00;99465.13;5049256;28;20044;-41
2022/12/24 10:30:13;;;;;;;8.98;1.88;;;;;;;7.69;100.00;99454.75;5043934;28;20037;-42
2022/12/24 10:36:27;;;;;;;10.57;1.83;;;;;;;7.84;100.00;99442.09;5041752;28;20028;-41
2022/12/24 10:39:00;;;;;;;11.98;2.63;;;;;;;7.89;100.00;99426.09;5045606;28;20041;-41
2022/12/24 10:41:35;;;;;;;16.48;3.15;;;;;;;7.98;100.00;99443.22;5043860;28;20083;-40
2022/12/24 10:44:04;;;;;;;24.80;5.15;;;;;;;8.05;100.00;99441.81;5048390;28;20045;-40
2022/12/24 10:50:21;;;;;;;17.35;3.80;;;;;;;8.20;100.00;99439.00;5043946;28;20042;-39
2022/12/24 10:56:29;;;;;;;23.80;4.95;;;;;;;8.38;100.00;99450.41;5040507;28;20064;-39
2022/12/24 10:58:56;;;;;;;16.85;2.67;;;;;;;8.45;100.00;99450.56;5051261;28;20053;-39
2022/12/24 11:02:05;;;;;;;19.23;3.45;;;;;;;8.53;100.00;99439.31;5049402;28;20049;-39
2022/12/24 11:05:20;;;;;;;12.50;3.90;;;;;;;8.67;100.00;99447.09;5049428;28;20153;-43
2022/12/24 11:08:11;;;;;;;17.13;3.65;;;;;;;8.79;100.00;99441.41;5047616;28;20090;-41
2022/12/24 11:10:44;;;;;;;19.33;4.25;;;;;;;8.88;100.00;99436.47;5050757;28;20074;-40
2022/12/24 11:20:59;;;;;;;29.00;5.47;;;;;;;9.15;100.00;99437.34;5049375;28;20513;-40
2022/12/24 11:23:56;;;;;;;26.27;4.20;;;;;;;9.18;100.00;99433.88;5042150;28;20045;-40
2022/12/24 11:26:25;;;;;;;15.30;3.92;;;;;;;9.19;100.00;99416.91;5039079;28;20132;-40
2022/12/24 11:29:19;;;;;;;18.63;3.90;;;;;;;9.19;100.00;99421.63;5045190;28;20045;-40
2022/12/24 11:31:48;;;;;;;25.42;3.50;;;;;;;9.18;100.00;99409.81;5042787;28;20132;-40
2022/12/24 11:34:21;;;;;;;19.83;4.35;;;;;;;9.19;100.00;99421.63;5047470;28;20064;-40
2022/12/24 11:36:50;;;;;;;29.85;6.53;;;;;;;9.18;100.00;99418.09;5025392;28;20059;-40
2022/12/24 11:39:22;;;;;;;18.02;4.47;;;;;;;9.14;100.00;99408.94;5046253;28;20099;-40
2022/12/24 11:41:50;;;;;;;22.75;4.55;;;;;;;9.12;100.00;99393.91;5046241;28;20092;-40
2022/12/24 11:52:07;;;;;;;19.92;4.30;;;;;;;9.02;100.00;99389.00;5045592;28;20040;-41
2022/12/24 11:54:47;;;;;;;21.08;3.50;;;;;;;8.99;100.00;99390.53;5047348;28;20037;-41
2022/12/24 11:58:02;;;;;;;15.93;3.63;;;;;;;8.97;100.00;99390.13;5044717;28;20049;-44
2022/12/24 12:00:29;;;;;;;27.33;5.32;;;;;;;8.94;100.00;99376.25;5022896;28;20046;-43
2022/12/24 12:03:00;;;;;;;20.73;4.53;;;;;;;8.92;100.00;99379.34;5032324;28;20041;-40
2022/12/24 12:05:39;;;;;;;20.83;3.97;;;;;;;8.91;100.00;99376.97;5023090;28;20463;-45
2022/12/24 12:08:29;;;;;;;26.65;5.88;;;;;;;8.86;100.00;99378.09;5029372;28;20038;-44
2022/12/24 12:11:40;;;;;;;21.38;5.57;;;;;;;8.83;100.00;99373.28;5032142;28;20053;-40
2022/12/24 12:14:50;;;;;;;17.33;3.55;;;;;;;8.78;100.00;99370.84;5027083;28;20042;-40
2022/12/24 12:17:38;;;;;;;26.35;4.53;;;;;;;8.74;100.00;99361.69;5022793;28;20593;-41
2022/12/24 12:20:49;;;;;;;25.92;6.53;;;;;;;8.74;100.00;99364.44;5031789;28;20500;-40
2022/12/24 12:23:44;;;;;;;15.00;3.85;;;;;;;8.73;100.00;99359.31;5025959;28;20065;-46
2022/12/24 12:26:28;;;;;;;24.40;5.50;;;;;;;8.72;100.00;99358.50;5021900;28;20487;-40
2022/12/24 12:29:31;;;;;;;14.75;4.35;;;;;;;8.73;100.00;99357.34;5029215;28;20049;-41
2022/12/24 12:32:35;;;;;;;24.70;5.22;;;;;;;8.72;100.00;99358.50;5030349;28;20096;-40
2022/12/24 12:35:36;;;;;;;23.13;5.65;;;;;;;8.72;100.00;99358.50;5027710;28;20029;-41
2022/12/24 12:38:35;;;;;;;15.57;4.88;;;;;;;8.68;100.00;99352.13;5034693;28;20106;-40
2022/12/24 12:45:27;;;;;;;21.05;4.53;;;;;;;8.60;100.00;99344.88;5027696;28;20418;-40
2022/12/24 12:56:16;;;;;;;21.80;5.53;;;;;;;8.54;100.00;99346.34;5032777;28;20091;-41
2022/12/24 12:59:07;;;;;;;18.67;5.35;;;;;;;8.51;100.00;99347.06;5036471;28;20052;-40
2022/12/24 13:05:55;;;;;;;21.70;5.57;;;;;;;8.50;100.00;99337.19;5047442;28;20120;-41
2022/12/24 13:08:39;;;;;;;25.38;5.45;;;;;;;8.46;100.00;99345.41;5052162;28;20041;-41
2022/12/24 13:11:32;;;;;;;34.70;7.47;;;;;;;8.43;100.00;99368.19;5042649;28;20071;-41
2022/12/24 13:14:22;;;;;;;28.10;5.50;;;;;;;8.42;100.00;99393.38;5044028;28;20053;-40
2022/12/24 13:17:26;;;;;;;9.18;2.75;;;;;;;8.34;100.00;99383.38;5034525;28;20063;-41
2022/12/24 13:20:14;;;;;;;7.00;2.28;;;;;;;7.99;100.00;99402.69;5040618;28;20049;-41
2022/12/24 13:23:07;;;;;;;5.57;1.85;;;;;;;7.69;100.00;99385.88;5051309;28;20388;-40
2022/12/24 13:25:40;;;;;;;2.80;1.63;;;;;;;7.49;100.00;99378.72;5053164;28;20049;-40
2022/12/24 13:28:41;;;;;;;2.20;1.48;;;;;;;7.33;100.00;99375.19;5051605;28;20041;-40
2022/12/24 13:31:28;;;;;;;4.57;1.77;;;;;;;7.26;100.00;99377.75;5040588;28;20052;-40
2022/12/24 13:34:00;;;;;;;9.90;3.58;;;;;;;7.19;100.00;99348.13;5050832;28;20049;-40
2022/12/24 13:37:01;;;;;;;6.07;2.67;;;;;;;7.12;100.00;99347.94;5035573;28;20049;-40
2022/12/24 13:39:27;;;;;;;1.13;0.80;;;;;;;7.10;100.00;99350.25;5041023;28;20052;-40
2022/12/24 13:41:54;;;;;;;3.05;2.08;;;;;;;7.09;100.00;99334.09;5051602;28;20061;-40
2022/12/24 13:44:33;;;;;;;2.60;1.30;;;;;;;7.05;100.00;99335.97;5053053;28;20043;-41
2022/12/24 13:47:25;;;;;;;4.60;1.05;;;;;;;7.04;100.00;99301.34;5049228;28;20048;-40
2022/12/24 13:50:19;;;;;;;1.88;1.00;;;;;;;7.06;100.00;99301.78;5052317;28;20478;-41
2022/12/24 13:52:51;;;;;;;4.20;1.00;;;;;;;7.11;100.00;99307.03;5051159;28;20053;-40
2022/12/24 13:55:18;;;;;;;4.55;1.27;;;;;;;7.13;100.00;99299.19;5051211;28;20051;-40
2022/12/24 13:58:00;;;;;;;4.28;1.55;;;;;;;7.14;100.00;99304.38;5052082;28;20056;-41
2022/12/24 14:00:33;;;;;;;2.97;1.80;;;;;;;7.15;100.00;99280.38;5037917;28;20091;-41
2022/12/24 14:03:32;;;;;;;4.05;1.95;;;;;;;7.15;100.00;99291.38;5052645;28;20052;-40
2022/12/24 14:06:08;;;;;;;5.20;2.65;;;;;;;7.14;100.00;99287.84;5050915;28;20048;-40
2022/12/24 14:08:45;;;;;;;10.70;3.22;;;;;;;7.16;100.00;99293.78;5051738;28;20052;-40
2022/12/24 14:12:00;;;;;;;4.47;2.03;;;;;;;7.16;100.00;99282.78;5050969;28;20056;-40
2022/12/24 14:14:33;;;;;;;7.30;2.20;;;;;;;7.17;100.00;99284.38;5050849;28;20481;-41
2022/12/24 14:17:13;;;;;;;6.50;2.17;;;;;;;7.18;100.00;99271.41;5050986;28;20395;-41
2022/12/24 14:19:43;;;;;;;8.45;3.10;;;;;;;7.18;100.00;99276.91;5050522;28;20048;-40
2022/12/24 14:22:10;;;;;;;6.30;2.38;;;;;;;7.18;100.00;99268.66;5050054;28;20040;-40
2022/12/24 14:24:42;;;;;;;6.47;2.05;;;;;;;7.18;100.00;99263.13;5050910;28;20041;-40
2022/12/24 14:27:17;;;;;;;5.30;2.10;;;;;;;7.19;100.00;99264.75;5050964;28;20048;-40
2022/12/24 14:30:16;;;;;;;2.80;2.05;;;;;;;7.19;100.00;99264.75;5038743;28;20044;-40
2022/12/24 14:32:43;;;;;;;5.18;2.22;;;;;;;7.19;100.00;99268.31;5049962;28;20041;-41
2022/12/24 14:35:17;;;;;;;3.63;1.88;;;;;;;7.20;100.00;99283.66;5050766;28;20199;-40
2022/12/24 14:37:55;;;;;;;6.55;2.10;;;;;;;7.19;100.00;99279.31;5038376;28;21196;-41
2022/12/24 14:40:28;;;;;;;6.03;2.97;;;;;;;7.20;100.00;99271.88;5046341;28;20055;-41
2022/12/24 14:43:29;;;;;;;4.07;2.45;;;;;;;7.18;100.00;99257.63;5049903;28;20044;-41
2022/12/24 14:46:21;;;;;;;5.75;2.95;;;;;;;7.20;100.00;99289.16;5039017;28;20387;-40
2022/12/24 14:49:05;;;;;;;15.85;7.18;;;;;;;7.19;100.00;99249.03;5049776;28;20136;-40
2022/12/24 14:51:47;;;;;;;8.68;4.28;;;;;;;7.20;100.00;99285.63;5050662;28;20044;-40
2022/12/24 14:54:19;;;;;;;9.95;5.30;;;;;;;7.19;100.00;99282.06;5051225;28;20060;-40
2022/12/24 14:56:45;;;;;;;;;;;;;;;7.17;100.00;99267.88;5040240;28;20072;-40
2022/12/24 14:59:19;;;;;;;7.70;3.90;;;;;;;7.15;100.00;99252.84;5049553;28;19924;-40
2022/12/24 15:01:46;;;;;;;9.13;2.10;;;;;;;7.14;100.00;99260.34;5050810;28;20227;-40
2022/12/24 15:04:17;;;;;;;5.75;1.95;;;;;;;7.13;100.00;99249.66;5049465;28;20053;-41
2022/12/24 15:06:51;;;;;;;7.05;1.88;;;;;;;7.11;100.00;99240.97;5050043;28;20049;-40
2022/12/24 15:09:22;;;;;;;5.03;3.03;;;;;;;7.12;100.00;99226.06;5050151;28;20433;-40
2022/12/24 15:11:52;;;;;;;4.80;2.50;;;;;;;7.12;100.00;99237.84;5049183;28;20083;-42
2022/12/24 15:14:22;;;;;;;4.20;2.50;;;;;;;7.11;100.00;99225.28;5050576;28;20053;-41
2022/12/24 15:16:53;;;;;;;15.18;8.98;;;;;;;7.11;100.00;99221.72;5051940;28;20052;-40
2022/12/24 15:19:27;;;;;;;32.97;16.63;;;;;;;7.11;100.00;99213.47;5049483;28;20479;-41
2022/12/24 15:21:54;;;;;;;30.83;14.40;;;;;;;7.11;100.00;99196.94;5032718;28;20049;-41
2022/12/24 15:27:51;;;;;;;40.42;19.38;;;;;;;7.10;100.00;99196.13;5050299;28;20049;-40
2022/12/24 15:30:21;;;;;;;25.23;14.40;;;;;;;7.11;100.00;99207.94;5048963;28;20045;-41
2022/12/24 15:32:53;;;;;;;20.70;11.57;;;;;;;7.10;100.00;99222.84;5049786;28;20045;-40
2022/12/24 15:35:29;;;;;;;17.52;8.68;;;;;;;7.08;100.00;99209.47;5049049;28;20045;-40
2022/12/24 15:38:01;;;;;;;7.93;4.40;;;;;;;7.06;100.00;99183.47;5050014;28;20060;-40
2022/12/24 15:40:28;;;;;;;7.32;3.35;;;;;;;7.06;100.00;99198.03;5050227;28;20045;-47
2022/12/24 15:42:55;;;;;;;11.05;5.93;;;;;;;7.06;100.00;99180.72;5049910;28;20056;-41
2022/12/24 15:45:26;;;;;;;7.55;4.32;;;;;;;7.05;100.00;99168.09;5050245;28;20114;-40
2022/12/24 15:47:58;;;;;;;14.43;4.90;;;;;;;7.04;100.00;99235.31;5042325;28;20103;-40
2022/12/24 15:50:29;;;;;;;8.82;3.88;;;;;;;7.02;100.00;99254.13;5049539;28;20049;-40
2022/12/24 15:53:04;;;;;;;10.25;3.17;;;;;;;6.96;100.00;99244.56;5051025;28;20045;-40
2022/12/24 15:56:05;;;;;;;7.18;3.35;;;;;;;6.88;100.00;99220.78;5043721;28;20147;-40
2022/12/24 15:58:35;;;;;;;12.00;4.03;;;;;;;6.81;100.00;99232.41;5053426;28;20147;-40
2022/12/24 16:01:08;;;;;;;5.53;3.13;;;;;;;6.78;100.00;99251.59;5053281;28;20056;-40
2022/12/24 16:03:38;;;;;;;9.40;2.67;;;;;;;6.75;100.00;99253.88;5045889;28;20431;-40
2022/12/24 16:06:10;;;;;;;6.30;2.05;;;;;;;6.73;100.00;99208.66;5047407;28;20410;-42
2022/12/24 16:08:39;;;;;;;8.07;2.83;;;;;;;6.70;100.00;99193.66;5053683;28;20510;-40
2022/12/24 16:11:23;;;;;;;6.38;3.40;;;;;;;6.69;100.00;99170.06;5053937;28;20048;-40
2022/12/24 16:13:56;;;;;;;8.38;3.45;;;;;;;6.69;100.00;99131.56;5054034;28;20056;-45
2022/12/24 16:16:33;;;;;;;14.13;5.35;;;;;;;6.70;100.00;99130.41;5054464;28;20045;-41
2022/12/24 16:19:42;;;;;;;8.18;2.17;;;;;;;6.68;100.00;99127.22;5056492;28;20051;-41
2022/12/24 16:22:30;;;;;;;7.10;2.40;;;;;;;6.63;100.00;99138.50;5053992;28;20067;-41
2022/12/24 16:25:26;;;;;;;5.45;2.55;;;;;;;6.63;100.00;99132.19;5052695;28;20103;-41
2022/12/24 16:27:53;;;;;;;4.45;1.95;;;;;;;6.61;100.00;99135.31;5053014;28;20045;-41
2022/12/24 16:30:25;;;;;;;2.47;1.95;;;;;;;6.62;100.00;99131.41;5053695;28;20099;-41
2022/12/24 16:32:52;;;;;;;2.90;1.90;;;;;;;6.63;100.00;99124.75;5052852;28;20511;-40
2022/12/24 16:39:22;;;;;;;6.00;2.47;;;;;;;6.64;100.00;99142.84;5052274;28;20033;-40
2022/12/24 16:44:52;;;;;;;8.95;3.25;;;;;;;6.67;100.00;99111.88;5053624;28;20033;-41
2022/12/24 16:47:22;;;;;;;4.95;3.38;;;;;;;6.68;100.00;99094.22;5034576;28;20162;-41
2022/12/24 16:50:14;;;;;;;7.32;3.85;;;;;;;6.68;100.00;99105.22;5050648;28;20052;-41
2022/12/24 16:52:41;;;;;;;12.18;3.25;;;;;;;6.68;100.00;99105.22;5052556;28;20044;-41
2022/12/24 16:55:12;;;;;;;10.20;4.07;;;;;;;6.68;100.00;99109.91;5051719;28;20045;-40
2022/12/24 16:57:40;;;;;;;5.53;3.63;;;;;;;6.67;100.00;99117.38;5053615;28;20045;-41
2022/12/24 17:00:14;;;;;;;5.40;2.40;;;;;;;6.64;100.00;99123.59;5053636;28;20517;-41
2022/12/24 17:02:41;;;;;;;5.18;3.28;;;;;;;6.64;100.00;99134.59;5052784;28;20059;-41
2022/12/24 17:05:09;;;;;;;8.07;4.90;;;;;;;6.65;100.00;99141.69;5051964;28;20472;-40
2022/12/24 17:07:51;;;;;;;7.75;4.85;;;;;;;6.65;100.00;99129.88;5052801;28;20100;-41
2022/12/24 17:10:18;;;;;;;6.88;4.20;;;;;;;6.67;100.00;99139.38;5040416;28;20052;-41
2022/12/24 17:12:45;;;;;;;9.45;5.75;;;;;;;6.68;100.00;99129.16;5033198;28;20140;-41
2022/12/24 17:15:12;;;;;;;5.90;4.18;;;;;;;6.68;100.00;99135.47;5054291;28;20048;-40
2022/12/24 17:17:44;;;;;;;13.07;4.78;;;;;;;6.70;100.00;99137.84;5056516;28;20036;-41
2022/12/24 17:20:11;;;;;;;3.78;2.13;;;;;;;6.69;100.00;99137.06;5051100;28;20060;-41
2022/12/24 17:22:41;;;;;;;7.00;2.97;;;;;;;6.70;100.00;99135.09;5052742;28;20413;-41
2022/12/24 17:25:10;;;;;;;7.85;3.72;;;;;;;6.71;100.00;99133.94;5052293;28;20041;-41
2022/12/24 17:27:40;;;;;;;7.13;2.40;;;;;;;6.71;100.00;99148.50;5051695;28;20049;-41